createdAt,value
2023-02-02T00:00:21.145Z,876.00
2023-02-02T00:01:21.152Z,891.00
2023-02-02T00:02:21.146Z,869.00
2023-02-02T00:03:21.089Z,861.00
2023-02-02T00:04:21.047Z,871.00
2023-02-02T00:05:21.049Z,891.00
2023-02-02T00:06:21.011Z,885.00
2023-02-02T00:07:20.963Z,878.00
2023-02-02T00:08:20.950Z,878.00
2023-02-02T00:09:20.924Z,879.00
2023-02-02T00:10:20.905Z,871.00
2023-02-02T00:11:20.877Z,878.00
2023-02-02T00:12:20.842Z,873.00
2023-02-02T00:13:20.822Z,878.00
2023-02-02T00:14:20.797Z,855.00
2023-02-02T00:15:20.789Z,861.00
2023-02-02T00:16:20.785Z,859.00
2023-02-02T00:17:20.731Z,871.00
2023-02-02T00:18:20.723Z,878.00
2023-02-02T00:19:20.677Z,874.00
2023-02-02T00:20:20.667Z,876.00
2023-02-02T00:21:20.638Z,857.00
2023-02-02T00:22:20.618Z,876.00
2023-02-02T00:23:20.596Z,872.00
2023-02-02T00:24:20.563Z,872.00
2023-02-02T00:25:20.548Z,861.00
2023-02-02T00:26:20.533Z,865.00
2023-02-02T00:27:20.489Z,871.00
2023-02-02T00:28:20.480Z,874.00
2023-02-02T00:29:20.452Z,867.00
2023-02-02T00:30:20.418Z,870.00
2023-02-02T00:31:20.442Z,869.00
2023-02-02T00:32:20.362Z,874.00
2023-02-02T00:33:20.337Z,878.00
2023-02-02T00:34:20.311Z,856.00
2023-02-02T00:35:20.287Z,865.00
2023-02-02T00:36:20.264Z,866.00
2023-02-02T00:37:20.259Z,841.00
2023-02-02T00:38:20.218Z,855.00
2023-02-02T00:39:20.186Z,867.00
2023-02-02T00:40:20.156Z,863.00
2023-02-02T00:41:20.137Z,865.00
2023-02-02T00:42:20.111Z,877.00
2023-02-02T00:43:20.098Z,873.00
2023-02-02T00:44:20.065Z,874.00
2023-02-02T00:45:20.047Z,888.00
2023-02-02T00:46:19.993Z,861.00
2023-02-02T00:47:19.967Z,864.00
2023-02-02T00:48:19.948Z,866.00
2023-02-02T00:49:19.922Z,874.00
2023-02-02T00:50:19.902Z,866.00
2023-02-02T00:51:19.878Z,858.00
2023-02-02T00:52:19.843Z,848.00
2023-02-02T00:53:19.819Z,857.00
2023-02-02T00:54:19.797Z,867.00
2023-02-02T00:55:19.801Z,872.00
2023-02-02T00:56:19.748Z,889.00
2023-02-02T00:57:19.726Z,891.00
2023-02-02T00:58:19.699Z,884.00
2023-02-02T00:59:19.683Z,873.00
2023-02-02T01:00:19.654Z,845.00
2023-02-02T01:01:19.657Z,868.00
2023-02-02T01:02:19.620Z,874.00
2023-02-02T01:03:19.591Z,887.00
2023-02-02T01:04:19.566Z,910.00
2023-02-02T01:05:19.532Z,881.00
2023-02-02T01:06:19.511Z,873.00
2023-02-02T01:07:19.474Z,881.00
2023-02-02T01:08:19.436Z,873.00
2023-02-02T01:09:19.426Z,892.00
2023-02-02T01:10:19.404Z,865.00
2023-02-02T01:11:19.348Z,859.00
2023-02-02T01:12:19.330Z,869.00
2023-02-02T01:13:19.306Z,877.00
2023-02-02T01:14:19.285Z,874.00
2023-02-02T01:15:19.257Z,869.00
2023-02-02T01:16:19.289Z,874.00
2023-02-02T01:17:19.201Z,874.00
2023-02-02T01:18:19.167Z,887.00
2023-02-02T01:19:19.148Z,885.00
2023-02-02T01:20:19.116Z,881.00
2023-02-02T01:21:19.089Z,871.00
2023-02-02T01:22:19.079Z,876.00
2023-02-02T01:23:19.057Z,890.00
2023-02-02T01:24:19.033Z,882.00
2023-02-02T01:25:18.994Z,887.00
2023-02-02T01:26:19.025Z,893.00
2023-02-02T01:27:18.940Z,886.00
2023-02-02T01:28:18.932Z,878.00
2023-02-02T01:29:18.897Z,888.00
2023-02-02T01:30:18.881Z,905.00
2023-02-02T01:31:18.942Z,895.00
2023-02-02T01:32:18.831Z,887.00
2023-02-02T01:33:18.818Z,877.00
2023-02-02T01:34:18.784Z,896.00
2023-02-02T01:35:18.761Z,878.00
2023-02-02T01:36:18.739Z,888.00
2023-02-02T01:37:18.742Z,889.00
2023-02-02T01:38:18.691Z,891.00
2023-02-02T01:39:18.672Z,887.00
2023-02-02T01:40:18.650Z,881.00
2023-02-02T01:41:18.614Z,895.00
2023-02-02T01:42:18.609Z,879.00
2023-02-02T01:43:18.575Z,896.00
2023-02-02T01:44:18.575Z,902.00
2023-02-02T01:45:18.522Z,899.00
2023-02-02T01:46:18.523Z,899.00
2023-02-02T01:47:18.479Z,907.00
2023-02-02T01:48:18.490Z,894.00
2023-02-02T01:49:18.427Z,888.00
2023-02-02T01:50:18.438Z,874.00
2023-02-02T01:51:18.392Z,879.00
2023-02-02T01:52:18.385Z,898.00
2023-02-02T01:53:18.349Z,899.00
2023-02-02T01:54:18.360Z,913.00
2023-02-02T01:55:18.321Z,899.00
2023-02-02T01:56:18.297Z,905.00
2023-02-02T01:57:18.275Z,890.00
2023-02-02T01:58:18.261Z,894.00
2023-02-02T01:59:18.239Z,875.00
2023-02-02T02:00:18.236Z,879.00
2023-02-02T02:01:18.313Z,893.00
2023-02-02T02:02:18.255Z,884.00
2023-02-02T02:03:18.163Z,896.00
2023-02-02T02:04:18.143Z,894.00
2023-02-02T02:05:18.124Z,907.00
2023-02-02T02:06:18.135Z,901.00
2023-02-02T02:07:18.091Z,895.00
2023-02-02T02:08:18.067Z,894.00
2023-02-02T02:09:18.064Z,893.00
2023-02-02T02:10:18.049Z,877.00
2023-02-02T02:11:17.998Z,889.00
2023-02-02T02:12:17.989Z,881.00
2023-02-02T02:13:17.969Z,894.00
2023-02-02T02:14:17.943Z,901.00
2023-02-02T02:15:17.924Z,905.00
2023-02-02T02:16:17.923Z,896.00
2023-02-02T02:17:17.887Z,912.00
2023-02-02T02:18:17.856Z,898.00
2023-02-02T02:19:17.831Z,898.00
2023-02-02T02:20:17.825Z,889.00
2023-02-02T02:21:17.793Z,891.00
2023-02-02T02:22:17.767Z,877.00
2023-02-02T02:23:17.742Z,883.00
2023-02-02T02:24:17.740Z,880.00
2023-02-02T02:25:17.711Z,887.00
2023-02-02T02:26:17.692Z,891.00
2023-02-02T02:27:17.665Z,901.00
2023-02-02T02:28:17.633Z,889.00
2023-02-02T02:29:17.648Z,895.00
2023-02-02T02:30:17.604Z,908.00
2023-02-02T02:31:17.681Z,898.00
2023-02-02T02:32:17.548Z,900.00
2023-02-02T02:33:17.514Z,898.00
2023-02-02T02:34:17.499Z,883.00
2023-02-02T02:35:17.476Z,889.00
2023-02-02T02:36:17.448Z,885.00
2023-02-02T02:37:17.452Z,885.00
2023-02-02T02:38:17.409Z,899.00
2023-02-02T02:39:17.406Z,883.00
2023-02-02T02:40:17.390Z,871.00
2023-02-02T02:41:17.373Z,875.00
2023-02-02T02:42:17.339Z,875.00
2023-02-02T02:43:17.310Z,885.00
2023-02-02T02:44:17.288Z,885.00
2023-02-02T02:45:17.281Z,874.00
2023-02-02T02:46:17.263Z,866.00
2023-02-02T02:47:17.203Z,879.00
2023-02-02T02:48:17.175Z,866.00
2023-02-02T02:49:17.152Z,878.00
2023-02-02T02:50:17.144Z,875.00
2023-02-02T02:51:17.109Z,856.00
2023-02-02T02:52:17.086Z,863.00
2023-02-02T02:53:17.065Z,866.00
2023-02-02T02:54:17.032Z,869.00
2023-02-02T02:55:17.032Z,878.00
2023-02-02T02:56:16.988Z,881.00
2023-02-02T02:57:16.964Z,872.00
2023-02-02T02:58:16.962Z,855.00
2023-02-02T02:59:16.929Z,864.00
2023-02-02T03:00:16.901Z,843.00
2023-02-02T03:01:16.954Z,857.00
2023-02-02T03:02:16.934Z,825.00
2023-02-02T03:03:16.835Z,857.00
2023-02-02T03:04:16.813Z,826.00
2023-02-02T03:05:16.804Z,827.00
2023-02-02T03:06:16.788Z,830.00
2023-02-02T03:07:16.752Z,834.00
2023-02-02T03:08:16.729Z,830.00
2023-02-02T03:09:16.704Z,853.00
2023-02-02T03:10:16.675Z,848.00
2023-02-02T03:11:16.681Z,842.00
2023-02-02T03:12:16.639Z,842.00
2023-02-02T03:13:16.623Z,816.00
2023-02-02T03:14:16.618Z,828.00
2023-02-02T03:15:16.588Z,844.00
2023-02-02T03:16:16.576Z,846.00
2023-02-02T03:17:16.560Z,850.00
2023-02-02T03:18:16.528Z,837.00
2023-02-02T03:19:16.514Z,841.00
2023-02-02T03:20:16.495Z,832.00
2023-02-02T03:21:16.493Z,840.00
2023-02-02T03:22:16.459Z,845.00
2023-02-02T03:23:16.436Z,783.00
2023-02-02T03:24:16.414Z,840.00
2023-02-02T03:25:16.415Z,845.00
2023-02-02T03:26:16.450Z,846.00
2023-02-02T03:27:16.358Z,818.00
2023-02-02T03:28:16.339Z,847.00
2023-02-02T03:29:16.307Z,831.00
2023-02-02T03:30:16.296Z,835.00
2023-02-02T03:31:16.294Z,831.00
2023-02-02T03:32:16.251Z,809.00
2023-02-02T03:33:16.231Z,828.00
2023-02-02T03:34:16.223Z,849.00
2023-02-02T03:35:16.200Z,858.00
2023-02-02T03:36:16.173Z,854.00
2023-02-02T03:37:16.152Z,835.00
2023-02-02T03:38:16.130Z,842.00
2023-02-02T03:39:16.116Z,826.00
2023-02-02T03:40:16.081Z,846.00
2023-02-02T03:41:16.072Z,840.00
2023-02-02T03:42:16.038Z,849.00
2023-02-02T03:43:16.024Z,846.00
2023-02-02T03:44:16.010Z,846.00
2023-02-02T03:45:15.985Z,846.00
2023-02-02T03:46:15.987Z,838.00
2023-02-02T03:47:15.943Z,848.00
2023-02-02T03:48:15.918Z,840.00
2023-02-02T03:49:15.902Z,832.00
2023-02-02T03:50:15.885Z,845.00
2023-02-02T03:51:15.859Z,820.00
2023-02-02T03:52:15.849Z,837.00
2023-02-02T03:53:15.821Z,841.00
2023-02-02T03:54:15.791Z,836.00
2023-02-02T03:55:15.792Z,857.00
2023-02-02T03:56:15.760Z,843.00
2023-02-02T03:57:15.743Z,850.00
2023-02-02T03:58:15.725Z,852.00
2023-02-02T03:59:15.711Z,846.00
2023-02-02T04:00:15.688Z,834.00
2023-02-02T04:01:15.656Z,846.00
2023-02-02T04:02:15.637Z,849.00
2023-02-02T04:03:15.637Z,829.00
2023-02-02T04:04:15.598Z,825.00
2023-02-02T04:05:15.586Z,841.00
2023-02-02T04:06:15.575Z,836.00
2023-02-02T04:07:15.554Z,847.00
2023-02-02T04:08:15.535Z,860.00
2023-02-02T04:09:15.529Z,836.00
2023-02-02T04:10:15.502Z,826.00
2023-02-02T04:11:15.489Z,842.00
2023-02-02T04:12:15.481Z,841.00
2023-02-02T04:13:15.452Z,858.00
2023-02-02T04:14:15.426Z,856.00
2023-02-02T04:15:15.416Z,859.00
2023-02-02T04:16:15.446Z,855.00
2023-02-02T04:17:15.378Z,851.00
2023-02-02T04:18:15.344Z,845.00
2023-02-02T04:19:15.325Z,841.00
2023-02-02T04:20:15.314Z,852.00
2023-02-02T04:21:15.309Z,852.00
2023-02-02T04:22:15.266Z,848.00
2023-02-02T04:23:15.248Z,839.00
2023-02-02T04:24:15.232Z,854.00
2023-02-02T04:25:15.204Z,844.00
2023-02-02T04:26:15.173Z,841.00
2023-02-02T04:27:15.166Z,877.00
2023-02-02T04:28:15.142Z,841.00
2023-02-02T04:29:15.113Z,843.00
2023-02-02T04:30:15.093Z,854.00
2023-02-02T04:31:15.111Z,866.00
2023-02-02T04:32:15.071Z,847.00
2023-02-02T04:33:15.038Z,848.00
2023-02-02T04:34:15.001Z,877.00
2023-02-02T04:35:14.977Z,853.00
2023-02-02T04:36:14.932Z,832.00
2023-02-02T04:37:14.934Z,844.00
2023-02-02T04:38:14.878Z,859.00
2023-02-02T04:39:14.893Z,861.00
2023-02-02T04:40:14.835Z,854.00
2023-02-02T04:41:14.809Z,871.00
2023-02-02T04:42:14.799Z,846.00
2023-02-02T04:43:14.775Z,860.00
2023-02-02T04:44:14.771Z,854.00
2023-02-02T04:45:14.731Z,853.00
2023-02-02T04:46:14.730Z,854.00
2023-02-02T04:47:14.678Z,849.00
2023-02-02T04:48:14.686Z,865.00
2023-02-02T04:49:14.640Z,852.00
2023-02-02T04:50:14.626Z,836.00
2023-02-02T04:51:14.608Z,848.00
2023-02-02T04:52:14.567Z,841.00
2023-02-02T04:53:14.552Z,852.00
2023-02-02T04:54:14.526Z,859.00
2023-02-02T04:55:14.518Z,844.00
2023-02-02T04:56:14.491Z,861.00
2023-02-02T04:57:14.486Z,836.00
2023-02-02T04:58:14.458Z,853.00
2023-02-02T04:59:14.437Z,862.00
2023-02-02T05:00:14.431Z,860.00
2023-02-02T05:01:14.458Z,862.00
2023-02-02T05:02:14.388Z,850.00
2023-02-02T05:03:14.368Z,827.00
2023-02-02T05:04:14.404Z,856.00
2023-02-02T05:05:14.348Z,863.00
2023-02-02T05:06:15.957Z,852.00
2023-02-02T05:07:14.307Z,861.00
2023-02-02T05:08:14.273Z,869.00
2023-02-02T05:09:14.262Z,861.00
2023-02-02T05:10:14.260Z,859.00
2023-02-02T05:11:14.214Z,860.00
2023-02-02T05:12:14.199Z,861.00
2023-02-02T05:13:14.170Z,862.00
2023-02-02T05:14:14.145Z,860.00
2023-02-02T05:15:14.147Z,859.00
2023-02-02T05:16:14.178Z,863.00
2023-02-02T05:17:14.105Z,877.00
2023-02-02T05:18:14.076Z,874.00
2023-02-02T05:19:14.265Z,891.00
2023-02-02T05:20:14.037Z,884.00
2023-02-02T05:21:14.013Z,900.00
2023-02-02T05:22:13.980Z,897.00
2023-02-02T05:23:13.948Z,890.00
2023-02-02T05:24:13.922Z,874.00
2023-02-02T05:25:13.890Z,870.00
2023-02-02T05:26:13.861Z,880.00
2023-02-02T05:27:13.844Z,865.00
2023-02-02T05:28:13.827Z,866.00
2023-02-02T05:29:13.786Z,867.00
2023-02-02T05:30:13.750Z,871.00
2023-02-02T05:31:13.800Z,865.00
2023-02-02T05:32:13.692Z,864.00
2023-02-02T05:33:13.687Z,866.00
2023-02-02T05:34:13.642Z,867.00
2023-02-02T05:35:13.609Z,864.00
2023-02-02T05:36:13.585Z,867.00
2023-02-02T05:37:13.552Z,843.00
2023-02-02T05:38:13.540Z,852.00
2023-02-02T05:39:13.490Z,869.00
2023-02-02T05:40:13.455Z,870.00
2023-02-02T05:41:13.432Z,871.00
2023-02-02T05:42:13.402Z,871.00
2023-02-02T05:43:13.385Z,854.00
2023-02-02T05:44:13.363Z,843.00
2023-02-02T05:45:13.344Z,850.00
2023-02-02T05:46:13.382Z,880.00
2023-02-02T05:47:13.299Z,874.00
2023-02-02T05:48:13.272Z,873.00
2023-02-02T05:49:13.255Z,877.00
2023-02-02T05:50:13.224Z,895.00
2023-02-02T05:51:13.204Z,890.00
2023-02-02T05:52:13.174Z,874.00
2023-02-02T05:53:13.149Z,878.00
2023-02-02T05:54:13.148Z,894.00
2023-02-02T05:55:13.099Z,888.00
2023-02-02T05:56:13.074Z,889.00
2023-02-02T05:57:13.039Z,892.00
2023-02-02T05:58:13.013Z,888.00
2023-02-02T05:59:12.994Z,889.00
2023-02-02T06:00:13.102Z,889.00
2023-02-02T06:01:12.940Z,885.00
2023-02-02T06:02:12.897Z,889.00
2023-02-02T06:03:13.111Z,890.00
2023-02-02T06:04:12.886Z,887.00
2023-02-02T06:23:12.362Z,988.00
2023-02-02T06:24:12.338Z,987.00
2023-02-02T06:25:12.308Z,999.00
2023-02-02T06:26:12.297Z,1003.00
2023-02-02T06:27:12.266Z,1013.00
2023-02-02T06:28:12.234Z,1001.00
2023-02-02T06:29:12.208Z,1016.00
2023-02-02T06:30:12.187Z,1018.00
2023-02-02T06:31:12.246Z,1033.00
2023-02-02T06:32:12.281Z,1035.00
2023-02-02T06:33:12.140Z,1038.00
2023-02-02T06:34:12.093Z,1044.00
2023-02-02T06:36:12.086Z,1088.00
2023-02-02T06:37:12.033Z,1116.00
2023-02-02T06:38:12.015Z,1098.00
2023-02-02T06:39:11.997Z,1104.00
2023-02-02T06:40:11.966Z,1096.00
2023-02-02T06:41:11.932Z,1115.00
2023-02-02T06:42:20.713Z,1119.00
2023-02-02T06:43:11.891Z,1120.00
2023-02-02T06:44:11.866Z,1124.00
2023-02-02T06:45:11.826Z,1136.00
2023-02-02T06:46:11.842Z,1156.00
2023-02-02T06:47:11.792Z,1189.00
2023-02-02T06:48:11.777Z,1237.00
2023-02-02T06:49:11.730Z,1254.00
2023-02-02T06:50:11.687Z,1278.00
2023-02-02T06:51:11.661Z,1295.00
2023-02-02T06:52:11.637Z,1331.00
2023-02-02T06:53:11.627Z,1345.00
2023-02-02T06:54:11.592Z,1335.00
2023-02-02T06:55:11.563Z,1337.00
2023-02-02T06:56:11.531Z,1359.00
2023-02-02T06:57:11.509Z,1384.00
2023-02-02T06:58:11.483Z,1419.00
2023-02-02T06:59:11.445Z,1481.00
2023-02-02T07:00:11.433Z,1343.00
2023-02-02T07:01:11.487Z,1370.00
2023-02-02T07:02:11.407Z,1344.00
2023-02-02T07:03:11.332Z,1374.00
2023-02-02T07:04:11.315Z,1428.00
2023-02-02T07:05:11.285Z,1518.00
2023-02-02T07:06:11.252Z,1634.00
2023-02-02T07:07:11.226Z,1667.00
2023-02-02T07:08:11.217Z,1655.00
2023-02-02T07:09:11.170Z,1673.00
2023-02-02T07:11:13.389Z,1684.00
2023-02-02T07:11:15.400Z,1686.00
2023-02-02T07:12:11.098Z,1686.00
2023-02-02T07:13:11.050Z,1692.00
2023-02-02T07:14:11.020Z,1697.00
2023-02-02T07:15:10.992Z,1716.00
2023-02-02T07:16:11.050Z,1732.00
2023-02-02T07:17:10.925Z,1742.00
2023-02-02T07:18:10.899Z,1736.00
2023-02-02T07:19:10.869Z,1737.00
2023-02-02T07:20:10.833Z,1752.00
2023-02-02T07:21:10.810Z,1673.00
2023-02-02T07:22:10.780Z,1469.00
2023-02-02T07:23:10.742Z,1232.00
2023-02-02T07:24:10.736Z,1138.00
2023-02-02T07:25:10.723Z,1135.00
2023-02-02T07:26:10.652Z,1068.00
2023-02-02T07:27:10.639Z,1045.00
2023-02-02T07:28:10.671Z,998.00
2023-02-02T07:29:10.584Z,987.00
2023-02-02T07:30:10.604Z,989.00
2023-02-02T07:31:10.654Z,844.00
2023-02-02T07:32:10.513Z,795.00
2023-02-02T07:33:10.488Z,729.00
2023-02-02T07:34:10.471Z,612.00
2023-02-02T07:35:10.448Z,626.00
2023-02-02T07:36:10.425Z,623.00
2023-02-02T07:37:10.408Z,631.00
2023-02-02T07:38:10.386Z,642.00
2023-02-02T07:39:10.371Z,577.00
2023-02-02T07:40:10.349Z,527.00
2023-02-02T07:41:10.318Z,629.00
2023-02-02T07:42:10.302Z,651.00
2023-02-02T07:43:10.303Z,1011.00
2023-02-02T07:44:10.454Z,1074.00
2023-02-02T07:45:36.510Z,1194.00
2023-02-02T07:46:11.324Z,1195.00
2023-02-02T07:48:10.232Z,1195.00
2023-02-02T07:50:10.127Z,523.00
2023-02-02T07:51:10.113Z,416.00
2023-02-02T07:52:10.157Z,400.00
2023-02-02T07:53:10.103Z,562.00
2023-02-02T07:54:10.085Z,632.00
2023-02-02T07:55:14.861Z,652.00
2023-02-02T07:56:11.074Z,654.00
2023-02-02T07:57:10.037Z,665.00
2023-02-02T07:58:10.024Z,726.00
2023-02-02T07:59:09.992Z,836.00
2023-02-02T08:00:09.959Z,1071.00
2023-02-02T08:01:09.962Z,1062.00
2023-02-02T08:02:09.917Z,1162.00
2023-02-02T08:03:09.988Z,1187.00
2023-02-02T08:04:09.971Z,1188.00
2023-02-02T08:05:09.886Z,1186.00
2023-02-02T08:06:09.865Z,1196.00
2023-02-02T08:07:09.850Z,1208.00
2023-02-02T08:08:09.832Z,1223.00
2023-02-02T08:09:09.789Z,1095.00
2023-02-02T08:10:09.797Z,1115.00
2023-02-02T08:11:09.736Z,930.00
2023-02-02T08:12:09.706Z,1033.00
2023-02-02T08:13:09.687Z,1060.00
2023-02-02T08:14:09.673Z,1105.00
2023-02-02T08:15:10.665Z,1132.00
2023-02-02T08:16:09.683Z,1113.00
2023-02-02T08:17:09.593Z,1098.00
2023-02-02T08:18:09.615Z,1083.00
2023-02-02T08:19:09.546Z,1089.00
2023-02-02T08:20:09.542Z,1016.00
2023-02-02T08:21:09.540Z,883.00
2023-02-02T08:22:09.495Z,925.00
2023-02-02T08:23:09.479Z,982.00
2023-02-02T08:24:09.462Z,1011.00
2023-02-02T08:25:09.444Z,1055.00
2023-02-02T08:26:09.436Z,968.00
2023-02-02T08:27:09.422Z,1024.00
2023-02-02T08:28:09.398Z,753.00
2023-02-02T08:29:09.383Z,861.00
2023-02-02T08:30:09.373Z,849.00
2023-02-02T08:31:09.422Z,853.00
2023-02-02T08:32:09.354Z,860.00
2023-02-02T08:33:09.327Z,883.00
2023-02-02T08:34:09.330Z,768.00
2023-02-02T08:35:09.288Z,830.00
2023-02-02T08:36:09.318Z,667.00
2023-02-02T08:37:09.456Z,642.00
2023-02-02T08:38:09.259Z,738.00
2023-02-02T08:39:09.331Z,805.00
2023-02-02T08:40:09.282Z,897.00
2023-02-02T08:41:09.232Z,994.00
2023-02-02T08:42:09.203Z,1034.00
2023-02-02T08:43:10.649Z,1098.00
2023-02-02T08:44:11.297Z,1109.00
2023-02-02T08:46:02.882Z,1103.00
2023-02-02T08:46:10.236Z,1104.00
2023-02-02T08:47:09.227Z,1108.00
2023-02-02T08:48:12.644Z,1119.00
2023-02-02T08:49:09.122Z,1105.00
2023-02-02T08:50:09.081Z,1111.00
2023-02-02T08:51:09.074Z,1107.00
2023-02-02T08:52:09.043Z,1119.00
2023-02-02T08:53:09.011Z,1140.00
2023-02-02T08:54:09.023Z,1171.00
2023-02-02T08:55:08.975Z,1224.00
2023-02-02T08:56:08.970Z,1206.00
2023-02-02T08:57:08.948Z,1208.00
2023-02-02T08:58:08.919Z,1196.00
2023-02-02T08:59:08.914Z,1202.00
2023-02-02T09:00:08.886Z,1210.00
2023-02-02T09:01:08.915Z,1165.00
2023-02-02T09:02:08.835Z,1141.00
2023-02-02T09:03:08.795Z,1172.00
2023-02-02T09:04:08.810Z,1185.00
2023-02-02T09:05:08.740Z,1188.00
2023-02-02T09:06:08.731Z,1203.00
2023-02-02T09:07:08.698Z,1221.00
2023-02-02T09:08:08.679Z,1220.00
2023-02-02T09:09:08.656Z,1217.00
2023-02-02T09:10:08.630Z,1167.00
2023-02-02T09:11:08.609Z,1196.00
2023-02-02T09:12:08.597Z,1179.00
2023-02-02T09:13:08.568Z,1171.00
2023-02-02T09:14:08.553Z,1173.00
2023-02-02T09:15:08.529Z,1174.00
2023-02-02T09:16:08.591Z,1178.00
2023-02-02T09:17:08.500Z,1167.00
2023-02-02T09:18:08.471Z,1169.00
2023-02-02T09:19:08.432Z,1181.00
2023-02-02T09:20:08.440Z,1154.00
2023-02-02T09:21:08.401Z,1140.00
2023-02-02T09:22:08.423Z,1154.00
2023-02-02T09:23:08.370Z,1170.00
2023-02-02T09:24:08.345Z,1192.00
2023-02-02T09:25:08.313Z,1161.00
2023-02-02T09:26:08.356Z,1149.00
2023-02-02T09:27:08.277Z,1133.00
2023-02-02T09:28:08.254Z,1155.00
2023-02-02T09:29:08.247Z,1104.00
2023-02-02T09:30:08.255Z,1103.00
2023-02-02T09:31:08.277Z,1105.00
2023-02-02T09:32:08.495Z,1120.00
2023-02-02T09:33:08.159Z,1166.00
2023-02-02T09:34:08.130Z,1235.00
2023-02-02T09:35:08.130Z,1337.00
2023-02-02T09:36:08.088Z,1372.00
2023-02-02T09:37:08.093Z,1398.00
2023-02-02T09:38:08.059Z,1417.00
2023-02-02T09:39:08.025Z,1416.00
2023-02-02T09:40:08.008Z,1438.00
2023-02-02T09:41:07.985Z,1432.00
2023-02-02T09:42:08.009Z,1433.00
2023-02-02T09:43:07.928Z,1445.00
2023-02-02T09:44:07.908Z,1470.00
2023-02-02T09:45:07.886Z,1468.00
2023-02-02T09:46:07.946Z,1472.00
2023-02-02T09:47:07.844Z,1483.00
2023-02-02T09:48:07.817Z,1468.00
2023-02-02T09:49:07.827Z,1462.00
2023-02-02T09:50:07.768Z,1462.00
2023-02-02T09:51:07.748Z,1402.00
2023-02-02T09:52:07.724Z,1464.00
2023-02-02T09:53:08.067Z,1322.00
2023-02-02T09:54:07.652Z,1362.00
2023-02-02T09:55:07.630Z,1397.00
2023-02-02T09:56:07.592Z,1395.00
2023-02-02T09:57:07.567Z,1393.00
2023-02-02T09:58:07.575Z,1407.00
2023-02-02T09:59:19.415Z,1424.00
2023-02-02T10:00:08.541Z,1426.00
2023-02-02T10:01:07.517Z,1428.00
2023-02-02T10:02:07.422Z,1445.00
2023-02-02T10:03:07.412Z,1465.00
2023-02-02T10:04:07.431Z,1516.00
2023-02-02T10:05:08.318Z,1534.00
2023-02-02T10:06:07.319Z,1560.00
2023-02-02T10:07:07.289Z,1553.00
2023-02-02T10:08:07.265Z,1564.00
2023-02-02T10:09:07.229Z,1575.00
2023-02-02T10:10:07.197Z,1586.00
2023-02-02T10:11:07.157Z,1606.00
2023-02-02T10:12:07.129Z,1602.00
2023-02-02T10:13:07.122Z,1614.00
2023-02-02T10:14:07.097Z,1618.00
2023-02-02T10:15:07.056Z,1634.00
2023-02-02T10:16:07.060Z,1643.00
2023-02-02T10:17:06.991Z,1650.00
2023-02-02T10:18:06.959Z,1661.00
2023-02-02T10:19:06.927Z,1662.00
2023-02-02T10:20:06.893Z,1666.00
2023-02-02T10:21:06.997Z,1674.00
2023-02-02T10:22:06.833Z,1683.00
2023-02-02T10:23:06.794Z,1690.00
2023-02-02T10:24:06.771Z,1697.00
2023-02-02T10:25:06.729Z,1692.00
2023-02-02T10:26:06.697Z,1692.00
2023-02-02T10:27:06.664Z,1705.00
2023-02-02T10:28:06.639Z,1718.00
2023-02-02T10:29:06.611Z,1719.00
2023-02-02T10:30:06.594Z,1722.00
2023-02-02T10:31:06.642Z,1722.00
2023-02-02T10:32:06.617Z,1732.00
2023-02-02T10:33:06.488Z,1754.00
2023-02-02T10:34:06.438Z,1745.00
2023-02-02T10:35:13.438Z,1752.00
2023-02-02T10:36:07.379Z,1754.00
2023-02-02T10:37:06.338Z,1756.00
2023-02-02T10:38:07.455Z,1771.00
2023-02-02T10:39:06.277Z,1869.00
2023-02-02T10:40:06.337Z,1962.00
2023-02-02T10:41:06.194Z,1926.00
2023-02-02T10:42:06.191Z,1972.00
2023-02-02T10:43:06.148Z,1986.00
2023-02-02T10:44:06.126Z,1954.00
2023-02-02T10:45:06.055Z,1961.00
2023-02-02T10:46:06.046Z,1959.00
2023-02-02T10:47:05.983Z,1934.00
2023-02-02T10:48:05.930Z,1913.00
2023-02-02T10:49:05.923Z,1906.00
2023-02-02T10:50:05.877Z,1898.00
2023-02-02T10:51:05.861Z,1894.00
2023-02-02T10:52:05.789Z,1877.00
2023-02-02T10:53:05.762Z,1864.00
2023-02-02T10:54:05.726Z,1851.00
2023-02-02T10:55:05.695Z,1839.00
2023-02-02T10:56:05.660Z,1824.00
2023-02-02T10:57:05.636Z,1810.00
2023-02-02T10:58:05.666Z,1786.00
2023-02-02T10:59:05.572Z,1763.00
2023-02-02T11:00:05.536Z,1762.00
2023-02-02T11:01:05.488Z,1745.00
2023-02-02T11:02:19.948Z,1732.00
2023-02-02T11:03:06.463Z,1732.00
2023-02-02T11:04:05.386Z,1721.00
2023-02-02T11:05:05.344Z,1732.00
2023-02-02T11:06:05.310Z,1691.00
2023-02-02T11:07:05.280Z,1670.00
2023-02-02T11:08:05.228Z,1686.00
2023-02-02T11:09:05.199Z,1657.00
2023-02-02T11:10:05.164Z,1634.00
2023-02-02T11:11:05.137Z,1610.00
2023-02-02T11:12:05.114Z,1599.00
2023-02-02T11:13:05.101Z,1588.00
2023-02-02T11:14:05.074Z,1579.00
2023-02-02T11:15:05.149Z,1564.00
2023-02-02T11:16:05.895Z,1559.00
2023-02-02T11:17:04.950Z,1520.00
2023-02-02T11:18:04.943Z,1514.00
2023-02-02T11:19:04.916Z,1517.00
2023-02-02T11:20:04.867Z,1510.00
2023-02-02T11:21:04.847Z,1486.00
2023-02-02T11:22:04.805Z,1472.00
2023-02-02T11:23:04.783Z,1472.00
2023-02-02T11:24:04.752Z,1458.00
2023-02-02T11:25:04.723Z,1421.00
2023-02-02T11:26:04.689Z,1411.00
2023-02-02T11:27:04.698Z,1418.00
2023-02-02T11:28:04.645Z,1405.00
2023-02-02T11:29:04.616Z,1401.00
2023-02-02T11:30:04.579Z,1411.00
2023-02-02T11:31:04.643Z,1408.00
2023-02-02T11:32:04.555Z,1403.00
2023-02-02T11:33:04.497Z,1529.00
2023-02-02T11:34:04.485Z,1743.00
2023-02-02T11:35:04.458Z,1785.00
2023-02-02T11:36:04.424Z,1776.00
2023-02-02T11:37:04.392Z,1714.00
2023-02-02T11:38:04.363Z,1727.00
2023-02-02T11:39:04.334Z,1726.00
2023-02-02T11:40:04.336Z,1747.00
2023-02-02T11:41:04.339Z,1732.00
2023-02-02T11:42:04.264Z,1719.00
2023-02-02T11:43:04.269Z,1697.00
2023-02-02T11:44:04.190Z,1698.00
2023-02-02T11:45:04.161Z,1698.00
2023-02-02T11:46:04.298Z,1694.00
2023-02-02T11:47:04.115Z,1675.00
2023-02-02T11:48:04.065Z,1680.00
2023-02-02T11:49:04.038Z,1681.00
2023-02-02T11:50:04.039Z,1707.00
2023-02-02T11:51:04.069Z,1736.00
2023-02-02T11:52:03.949Z,1748.00
2023-02-02T12:08:03.449Z,1690.00
2023-02-02T12:10:03.426Z,1683.00
2023-02-02T12:11:03.370Z,1668.00
2023-02-02T12:12:03.352Z,1671.00
2023-02-02T12:13:03.338Z,1662.00
2023-02-02T12:14:03.295Z,1662.00
2023-02-02T12:15:03.267Z,1663.00
2023-02-02T12:16:03.231Z,1662.00
2023-02-02T12:17:03.192Z,1662.00
2023-02-02T12:18:03.161Z,1663.00
2023-02-02T12:19:03.150Z,1653.00
2023-02-02T12:20:03.097Z,1649.00
2023-02-02T12:21:05.963Z,1650.00
2023-02-02T12:22:03.029Z,1651.00
2023-02-02T12:23:02.997Z,1649.00
2023-02-02T12:24:02.960Z,1642.00
2023-02-02T12:25:02.931Z,1645.00
2023-02-02T12:26:02.901Z,1627.00
2023-02-02T12:27:02.886Z,1637.00
2023-02-02T13:07:01.685Z,1479.00
2023-02-02T13:08:01.658Z,1481.00
2023-02-02T13:09:01.649Z,1466.00
2023-02-02T13:10:01.607Z,1467.00
2023-02-02T13:11:01.605Z,1466.00
2023-02-02T13:12:01.562Z,1468.00
2023-02-02T13:13:01.554Z,1467.00
2023-02-02T13:14:01.526Z,1461.00
2023-02-02T13:15:01.484Z,1460.00
2023-02-02T13:16:01.454Z,1466.00
2023-02-02T13:17:01.497Z,1441.00
2023-02-02T13:18:01.412Z,1442.00
2023-02-02T13:19:01.349Z,1437.00
2023-02-02T13:20:01.322Z,1433.00
2023-02-02T13:21:01.290Z,1430.00
2023-02-02T13:22:01.267Z,1426.00
2023-02-02T13:23:01.235Z,1420.00
2023-02-02T13:24:01.206Z,1416.00
2023-02-02T13:25:01.451Z,1415.00
2023-02-02T13:26:01.251Z,1420.00
2023-02-02T13:27:01.327Z,1417.00
2023-02-02T13:28:01.109Z,1402.00
2023-02-02T13:29:01.054Z,1400.00
2023-02-02T13:30:01.047Z,1402.00
2023-02-02T13:31:01.141Z,1395.00
2023-02-02T13:32:00.982Z,1394.00
2023-02-02T13:33:00.951Z,1393.00
2023-02-02T13:34:00.896Z,1383.00